Time;durP1;ratioP1;P1;durP2;ratioP2;P2;SDS_P1;SDS_P2;PMS_P1;PMS_P2;Temp;Humidity;BMP_temperature;BMP_pressure;BME280_temperature;BME280_humidity;BME280_pressure;Samples;Min_cycle;Max_cycle;Signal;HPM_P1;HPM_P2
2022/09/21 00:00:51;;;;;;;3.83;1.63;;;8.80;99.90;;;;;;5072836;28;20202;-76
2022/09/21 00:03:17;;;;;;;2.27;1.40;;;8.80;99.90;;;;;;5072825;28;20246;-76
2022/09/21 00:05:44;;;;;;;2.27;1.60;;;8.80;99.90;;;;;;5074104;28;20175;-75
2022/09/21 00:08:12;;;;;;;3.10;1.93;;;8.80;99.90;;;;;;5074107;28;20178;-75
2022/09/21 00:10:38;;;;;;;4.60;1.80;;;8.80;99.90;;;;;;5073914;28;20285;-75
2022/09/21 00:13:05;;;;;;;3.20;1.83;;;8.80;99.90;;;;;;5074033;28;20633;-75
2022/09/21 00:15:31;;;;;;;5.23;1.70;;;8.70;99.90;;;;;;5072685;28;20182;-76
2022/09/21 00:17:58;;;;;;;3.13;1.70;;;8.80;99.90;;;;;;5072588;28;20174;-77
2022/09/21 00:20:25;;;;;;;6.07;1.80;;;8.70;99.90;;;;;;5073886;28;20568;-76
2022/09/21 00:22:51;;;;;;;7.90;2.27;;;8.70;99.90;;;;;;5073670;28;20175;-75
2022/09/21 00:25:18;;;;;;;4.63;1.83;;;8.70;99.90;;;;;;5074048;28;20264;-76
2022/09/21 00:27:47;;;;;;;3.87;2.10;;;8.70;99.90;;;;;;5074059;28;20171;-75
2022/09/21 00:30:14;;;;;;;4.10;1.90;;;8.70;99.90;;;;;;5072661;28;20209;-76
2022/09/21 00:32:39;;;;;;;3.90;1.70;;;8.70;99.90;;;;;;5073773;28;20171;-75
2022/09/21 00:35:06;;;;;;;5.77;1.93;;;8.70;99.90;;;;;;5073743;28;20193;-75
2022/09/21 00:37:32;;;;;;;4.07;1.80;;;8.80;99.90;;;;;;5073764;28;20167;-76
2022/09/21 00:39:58;;;;;;;4.00;1.57;;;8.80;99.90;;;;;;5072129;28;20183;-75
2022/09/21 00:42:26;;;;;;;5.17;1.90;;;8.70;99.90;;;;;;5073273;28;20186;-75
2022/09/21 00:44:53;;;;;;;5.47;2.00;;;8.80;99.90;;;;;;5073388;28;20757;-75
2022/09/21 00:47:29;;;;;;;4.83;1.90;;;8.80;99.90;;;;;;5073663;28;20648;-75
2022/09/21 00:49:58;;;;;;;6.57;1.83;;;8.80;99.90;;;;;;5071677;28;20185;-76
2022/09/21 00:52:25;;;;;;;4.67;2.00;;;8.80;99.90;;;;;;5072028;28;20183;-75
2022/09/21 00:54:59;;;;;;;2.67;1.87;;;8.90;99.90;;;;;;5073309;28;20175;-76
2022/09/21 00:57:29;;;;;;;3.30;1.77;;;8.80;99.90;;;;;;5073364;28;20166;-76
2022/09/21 00:59:57;;;;;;;2.50;1.73;;;8.90;99.90;;;;;;5073180;28;20159;-76
2022/09/21 01:02:23;;;;;;;2.80;1.70;;;8.90;99.90;;;;;;5071808;28;20182;-76
2022/09/21 01:04:54;;;;;;;4.17;2.10;;;8.90;99.90;;;;;;5073101;28;20629;-77
2022/09/21 01:07:25;;;;;;;5.53;2.00;;;8.90;99.90;;;;;;5073755;28;20174;-76
2022/09/21 01:09:54;;;;;;;2.30;1.80;;;8.90;99.90;;;;;;5073332;28;20257;-76
2022/09/21 01:12:57;;;;;;;8.50;2.30;;;8.90;99.90;;;;;;5072854;28;20210;-75
2022/09/21 01:15:37;;;;;;;7.50;2.00;;;8.90;99.90;;;;;;5071857;28;20273;-75
2022/09/21 01:18:12;;;;;;;4.43;2.03;;;8.90;99.90;;;;;;5105120;22;20219;-79
2022/09/21 01:21:04;;;;;;;6.77;2.20;;;8.70;99.90;;;;;;5054383;28;20179;-79
2022/09/21 01:23:39;;;;;;;5.00;2.23;;;8.90;99.90;;;;;;5054223;28;20210;-79
2022/09/21 01:26:07;;;;;;;4.00;1.97;;;8.90;99.90;;;;;;5054023;28;20224;-80
2022/09/21 01:28:48;;;;;;;2.63;1.70;;;8.90;99.90;;;;;;5055091;28;20286;-80
2022/09/21 01:31:20;;;;;;;5.27;2.30;;;8.80;99.90;;;;;;5054826;28;20171;-80
2022/09/21 01:33:51;;;;;;;4.73;1.90;;;8.80;99.90;;;;;;5053856;28;20172;-79
2022/09/21 01:36:23;;;;;;;3.60;1.70;;;8.80;99.90;;;;;;5054020;28;20167;-79
2022/09/21 01:38:52;;;;;;;6.83;1.90;;;8.70;99.90;;;;;;5054015;28;20199;-80
2022/09/21 01:41:22;;;;;;;4.47;1.57;;;8.70;99.90;;;;;;5054849;28;20202;-80
2022/09/21 01:43:54;;;;;;;2.73;1.70;;;8.60;99.90;;;;;;5055628;28;20192;-78
2022/09/21 01:46:21;;;;;;;4.33;1.93;;;8.60;99.90;;;;;;5053883;28;20164;-80
2022/09/21 01:48:53;;;;;;;7.20;2.37;;;8.70;99.90;;;;;;5055615;28;20668;-80
2022/09/21 01:51:21;;;;;;;5.50;1.70;;;8.60;99.90;;;;;;5057382;28;20298;-80
2022/09/21 01:53:53;;;;;;;4.07;2.10;;;8.60;99.90;;;;;;5055840;28;20179;-80
2022/09/21 01:56:24;;;;;;;3.93;1.83;;;8.50;99.90;;;;;;5055847;28;20178;-79
2022/09/21 01:59:08;;;;;;;4.17;1.70;;;8.40;99.90;;;;;;5055181;28;20542;-79
2022/09/21 02:01:42;;;;;;;6.97;1.90;;;8.40;99.90;;;;;;5054444;28;20171;-80
2022/09/21 02:04:10;;;;;;;3.97;1.93;;;8.40;99.90;;;;;;5054619;28;20187;-79
2022/09/21 02:06:40;;;;;;;5.63;1.90;;;8.20;99.90;;;;;;5054097;28;20187;-80
2022/09/21 02:09:07;;;;;;;3.50;1.90;;;8.20;99.90;;;;;;5054247;28;20194;-80
2022/09/21 02:11:33;;;;;;;4.90;1.60;;;8.20;99.90;;;;;;5055733;28;20175;-78
2022/09/21 02:13:59;;;;;;;7.67;2.07;;;8.20;99.90;;;;;;5054199;28;20226;-79
2022/09/21 02:16:55;;;;;;;4.07;1.80;;;8.20;99.90;;;;;;5054097;28;20642;-79
2022/09/21 02:19:26;;;;;;;4.17;1.87;;;8.10;99.90;;;;;;5051627;28;20584;-80
2022/09/21 02:22:02;;;;;;;6.70;2.00;;;8.10;99.90;;;;;;5054224;28;20164;-79
2022/09/21 02:24:49;;;;;;;9.30;1.70;;;8.00;99.90;;;;;;5054606;28;20195;-79
2022/09/21 02:27:37;;;;;;;4.00;1.77;;;8.00;99.90;;;;;;5055792;28;20604;-80
2022/09/21 02:30:07;;;;;;;2.97;1.90;;;7.90;99.90;;;;;;5054373;28;20176;-78
2022/09/21 02:33:02;;;;;;;4.93;1.70;;;7.90;99.90;;;;;;5054570;28;20640;-79
2022/09/21 02:35:35;;;;;;;6.97;1.90;;;7.90;99.90;;;;;;5054452;28;20160;-79
2022/09/21 02:38:25;;;;;;;3.77;1.60;;;7.80;99.90;;;;;;5053853;28;20238;-80
2022/09/21 02:41:12;;;;;;;3.67;1.47;;;7.80;99.90;;;;;;5054600;28;20168;-80
2022/09/21 02:43:46;;;;;;;10.57;2.07;;;7.70;99.90;;;;;;5054162;28;20188;-79
2022/09/21 02:46:21;;;;;;;3.90;1.67;;;7.70;99.90;;;;;;5056674;28;20221;-80
2022/09/21 02:48:51;;;;;;;4.10;1.90;;;7.70;99.90;;;;;;5057750;28;20195;-79
2022/09/21 02:51:40;;;;;;;1.97;1.63;;;7.70;99.90;;;;;;5057214;28;20175;-80
2022/09/21 02:54:10;;;;;;;7.33;1.90;;;7.60;99.90;;;;;;5058646;28;20214;-79
2022/09/21 02:56:37;;;;;;;7.20;1.90;;;7.60;99.90;;;;;;5056808;28;20272;-79
2022/09/21 02:59:05;;;;;;;6.07;1.80;;;7.60;99.90;;;;;;5057619;28;20192;-79
2022/09/21 03:01:32;;;;;;;2.80;1.63;;;7.60;99.90;;;;;;5057625;28;20673;-79
2022/09/21 03:03:58;;;;;;;4.03;1.83;;;7.60;99.90;;;;;;5056189;28;20661;-78
2022/09/21 03:06:24;;;;;;;4.17;1.80;;;7.60;99.90;;;;;;5056684;28;20172;-79
2022/09/21 03:08:49;;;;;;;2.50;1.63;;;7.50;99.90;;;;;;5058217;28;20602;-77
2022/09/21 03:11:17;;;;;;;6.50;1.80;;;7.50;99.90;;;;;;5057646;28;20341;-79
2022/09/21 03:13:43;;;;;;;2.30;1.60;;;7.50;99.90;;;;;;5057960;28;20175;-79
2022/09/21 03:16:10;;;;;;;3.83;1.67;;;7.50;99.90;;;;;;5056873;28;20180;-79
2022/09/21 03:18:36;;;;;;;3.10;1.57;;;7.50;99.90;;;;;;5057019;28;20215;-79
2022/09/21 03:21:02;;;;;;;5.13;1.90;;;7.40;99.90;;;;;;5057809;28;20255;-79
2022/09/21 03:23:28;;;;;;;3.23;1.63;;;7.40;99.90;;;;;;5057791;28;20229;-78
2022/09/21 03:25:54;;;;;;;5.60;1.80;;;7.40;99.90;;;;;;5058300;28;20171;-79
2022/09/21 03:28:21;;;;;;;1.77;1.57;;;7.40;99.90;;;;;;5057180;28;20561;-79
2022/09/21 03:30:50;;;;;;;4.90;1.80;;;7.30;99.90;;;;;;5058290;28;20175;-77
2022/09/21 03:33:17;;;;;;;5.10;1.90;;;7.30;99.90;;;;;;5058072;28;20180;-79
2022/09/21 03:35:44;;;;;;;2.37;1.63;;;7.20;99.90;;;;;;5056330;28;20199;-79
2022/09/21 03:38:10;;;;;;;7.23;1.77;;;7.20;99.90;;;;;;5057535;28;20199;-79
2022/09/21 03:40:36;;;;;;;3.43;1.93;;;7.20;99.90;;;;;;5056946;28;20186;-78
2022/09/21 03:43:01;;;;;;;5.97;2.03;;;7.20;99.90;;;;;;5058797;28;20168;-79
2022/09/21 03:45:27;;;;;;;4.77;1.80;;;7.20;99.90;;;;;;5055947;28;20199;-78
2022/09/21 03:47:57;;;;;;;4.13;1.63;;;7.10;99.90;;;;;;5057837;28;20191;-79
2022/09/21 03:50:24;;;;;;;3.27;2.00;;;7.10;99.90;;;;;;5056383;28;20194;-79
2022/09/21 03:52:50;;;;;;;5.30;1.83;;;7.10;99.90;;;;;;5058605;28;20313;-79
2022/09/21 03:55:15;;;;;;;2.93;1.80;;;7.10;99.90;;;;;;5058317;28;20270;-78
2022/09/21 03:57:41;;;;;;;3.90;1.97;;;7.00;99.90;;;;;;5057220;28;20219;-79
2022/09/21 04:00:09;;;;;;;3.20;1.60;;;7.00;99.90;;;;;;5057462;28;20172;-79
2022/09/21 04:02:36;;;;;;;3.27;1.83;;;7.00;99.90;;;;;;5058009;28;20197;-79
2022/09/21 04:05:02;;;;;;;2.83;1.87;;;6.90;99.90;;;;;;5056403;28;20199;-79
2022/09/21 04:07:33;;;;;;;5.67;1.60;;;6.90;99.90;;;;;;5058328;28;20195;-79
2022/09/21 04:09:59;;;;;;;3.20;1.83;;;6.80;99.90;;;;;;5056218;28;20552;-79
2022/09/21 04:12:25;;;;;;;5.90;1.63;;;6.80;99.90;;;;;;5057757;28;20702;-79
2022/09/21 04:14:51;;;;;;;4.50;1.90;;;6.80;99.90;;;;;;5058399;28;20191;-79
2022/09/21 04:17:16;;;;;;;5.97;2.10;;;6.80;99.90;;;;;;5057706;28;20203;-79
2022/09/21 04:19:43;;;;;;;2.73;1.40;;;6.80;99.90;;;;;;5058573;28;20170;-78
2022/09/21 04:22:10;;;;;;;6.80;1.90;;;6.70;99.90;;;;;;5058349;28;20173;-79
2022/09/21 04:24:37;;;;;;;2.97;1.87;;;6.70;99.90;;;;;;5056310;28;20245;-79
2022/09/21 04:27:03;;;;;;;3.87;1.57;;;6.70;99.90;;;;;;5056610;28;20282;-79
2022/09/21 04:29:28;;;;;;;4.70;2.10;;;6.70;99.90;;;;;;5058043;28;20211;-79
2022/09/21 04:31:54;;;;;;;5.90;1.67;;;6.60;99.90;;;;;;5057052;28;20187;-79
2022/09/21 04:34:20;;;;;;;3.57;1.70;;;6.60;99.90;;;;;;5056233;28;20529;-79
2022/09/21 04:36:46;;;;;;;3.47;1.70;;;6.60;99.90;;;;;;5055591;28;20205;-79
2022/09/21 04:39:11;;;;;;;2.07;1.30;;;6.60;99.90;;;;;;5056279;28;20245;-79
2022/09/21 04:41:37;;;;;;;2.63;1.50;;;6.60;99.90;;;;;;5056769;28;20661;-79
2022/09/21 04:44:02;;;;;;;4.70;1.80;;;6.60;99.90;;;;;;5055167;28;20245;-79
2022/09/21 04:46:28;;;;;;;4.60;2.03;;;6.60;99.90;;;;;;5054983;28;20200;-79
2022/09/21 04:48:53;;;;;;;2.73;1.57;;;6.60;99.90;;;;;;5054763;28;20217;-79
2022/09/21 04:51:19;;;;;;;1.93;1.50;;;6.60;99.90;;;;;;5055927;28;20197;-79
2022/09/21 04:53:45;;;;;;;2.40;1.53;;;6.60;99.90;;;;;;5054822;28;20544;-78
2022/09/21 04:56:14;;;;;;;5.40;2.03;;;6.50;99.90;;;;;;5054786;28;20641;-78
2022/09/21 04:58:40;;;;;;;6.73;1.83;;;6.50;99.90;;;;;;5055755;28;20199;-78
2022/09/21 05:01:06;;;;;;;2.43;1.57;;;6.50;99.90;;;;;;5057434;28;20419;-78
2022/09/21 05:03:32;;;;;;;6.87;1.77;;;6.40;99.90;;;;;;5057003;28;20598;-79
2022/09/21 05:05:57;;;;;;;3.67;1.60;;;6.40;99.90;;;;;;5056609;28;20175;-79
2022/09/21 05:11:12;;;;;;;2.03;1.43;;;6.30;99.90;;;;;;5057135;28;20545;-80
2022/09/21 05:13:39;;;;;;;3.53;1.70;;;6.30;99.90;;;;;;5056481;28;20641;-79
2022/09/21 05:16:05;;;;;;;2.07;1.73;;;6.30;99.90;;;;;;5055722;28;20191;-79
2022/09/21 05:18:31;;;;;;;6.50;2.10;;;6.30;99.90;;;;;;5055904;28;20211;-79
2022/09/21 05:20:58;;;;;;;5.43;1.80;;;6.20;99.90;;;;;;5056592;28;20175;-79
2022/09/21 05:23:24;;;;;;;3.40;1.63;;;6.20;99.90;;;;;;5055470;28;20182;-79
2022/09/21 05:25:50;;;;;;;3.43;1.70;;;6.10;99.90;;;;;;5055796;28;20172;-79
2022/09/21 05:28:19;;;;;;;3.80;1.80;;;6.20;99.90;;;;;;5054054;28;20625;-79
2022/09/21 05:31:04;;;;;;;5.40;1.90;;;6.10;99.90;;;;;;5054562;28;20610;-79
2022/09/21 05:33:32;;;;;;;3.47;1.70;;;6.10;99.90;;;;;;5056663;28;20199;-79
2022/09/21 05:36:16;;;;;;;7.27;2.03;;;6.10;99.90;;;;;;5056063;28;20198;-79
2022/09/21 05:38:42;;;;;;;5.47;1.53;;;6.00;99.90;;;;;;5054304;28;20233;-79
2022/09/21 05:41:08;;;;;;;4.13;1.90;;;6.10;99.90;;;;;;5055959;28;20179;-79
2022/09/21 05:43:34;;;;;;;7.37;2.00;;;6.00;99.90;;;;;;5053717;28;20733;-79
2022/09/21 05:46:08;;;;;;;2.03;1.60;;;6.00;99.90;;;;;;5055549;28;20166;-79
2022/09/21 05:48:41;;;;;;;7.83;1.97;;;6.00;99.90;;;;;;5055380;28;20217;-79
2022/09/21 05:51:24;;;;;;;3.03;1.77;;;6.00;99.90;;;;;;5055410;28;20553;-80
2022/09/21 05:54:00;;;;;;;1.53;1.20;;;6.00;99.90;;;;;;5055733;28;20160;-80
2022/09/21 05:56:50;;;;;;;1.87;1.50;;;6.00;99.90;;;;;;5054176;28;20649;-79
2022/09/21 05:59:52;;;;;;;2.13;1.60;;;6.00;99.90;;;;;;5055758;28;20174;-79
2022/09/21 06:02:51;;;;;;;4.77;1.93;;;6.00;99.90;;;;;;5055688;28;20537;-80
2022/09/21 06:05:17;;;;;;;11.87;2.33;;;6.00;99.90;;;;;;5055168;28;20241;-80
2022/09/21 06:07:43;;;;;;;5.87;1.80;;;6.00;99.90;;;;;;5056589;28;20283;-80
2022/09/21 06:10:11;;;;;;;3.67;2.03;;;6.00;99.90;;;;;;5056237;28;20171;-80
2022/09/21 06:12:36;;;;;;;4.53;1.57;;;6.00;99.90;;;;;;5055156;28;20175;-79
2022/09/21 06:15:03;;;;;;;5.63;2.30;;;6.00;99.90;;;;;;5055109;28;20191;-79
2022/09/21 06:17:29;;;;;;;3.00;1.80;;;6.00;99.90;;;;;;5056290;28;20230;-80
2022/09/21 06:19:54;;;;;;;3.00;1.90;;;6.00;99.90;;;;;;5056392;28;20649;-80
2022/09/21 06:22:20;;;;;;;3.47;1.70;;;6.00;99.90;;;;;;5059244;28;20189;-80
2022/09/21 06:24:45;;;;;;;5.47;2.30;;;6.10;99.90;;;;;;5059158;28;20207;-79
2022/09/21 06:27:11;;;;;;;4.93;1.90;;;6.10;99.90;;;;;;5059082;28;20199;-80
2022/09/21 06:29:36;;;;;;;12.50;1.80;;;6.10;99.90;;;;;;5058965;28;20179;-80
2022/09/21 06:32:03;;;;;;;5.30;1.57;;;6.10;99.90;;;;;;5060110;28;20172;-80
2022/09/21 06:34:29;;;;;;;4.90;1.90;;;6.20;99.90;;;;;;5058995;28;20180;-79
2022/09/21 06:36:55;;;;;;;5.83;1.87;;;6.20;99.90;;;;;;5060590;28;20168;-80
2022/09/21 06:39:21;;;;;;;9.37;1.97;;;6.20;99.90;;;;;;5060377;28;20180;-79
2022/09/21 06:41:46;;;;;;;2.87;1.60;;;6.30;99.90;;;;;;5059641;28;20244;-79
2022/09/21 06:44:12;;;;;;;4.23;1.73;;;6.30;99.90;;;;;;5059030;28;20203;-79
2022/09/21 06:46:37;;;;;;;1.77;1.37;;;6.40;99.90;;;;;;5060024;28;20186;-79
2022/09/21 06:49:03;;;;;;;4.23;1.83;;;6.50;99.90;;;;;;5059839;28;20614;-79
2022/09/21 06:51:28;;;;;;;3.00;1.80;;;6.50;99.90;;;;;;5057341;28;20188;-80
2022/09/21 06:53:55;;;;;;;4.03;1.83;;;6.60;99.90;;;;;;5059100;28;20199;-79
2022/09/21 06:56:21;;;;;;;2.93;1.73;;;6.70;99.90;;;;;;5057392;28;20179;-79
2022/09/21 06:58:47;;;;;;;3.23;1.53;;;6.70;99.90;;;;;;5058911;28;20195;-79
2022/09/21 07:01:14;;;;;;;6.13;1.93;;;6.80;99.90;;;;;;5058285;28;20203;-79
2022/09/21 07:03:41;;;;;;;3.97;1.90;;;6.90;99.90;;;;;;5059126;28;20199;-79
2022/09/21 07:06:10;;;;;;;5.20;1.97;;;7.00;99.90;;;;;;5058902;28;20237;-79
2022/09/21 07:08:35;;;;;;;4.70;2.00;;;7.10;99.90;;;;;;5057887;28;20199;-80
2022/09/21 07:11:01;;;;;;;2.83;1.90;;;7.20;99.90;;;;;;5058961;28;20656;-79
2022/09/21 07:13:27;;;;;;;4.07;1.93;;;7.30;99.90;;;;;;5058664;28;20171;-80
2022/09/21 07:15:53;;;;;;;6.30;3.00;;;7.40;99.90;;;;;;5056980;28;20178;-79
2022/09/21 07:18:20;;;;;;;5.93;3.17;;;7.50;99.90;;;;;;5057773;28;20297;-79
2022/09/21 07:20:47;;;;;;;10.97;4.60;;;7.60;99.90;;;;;;5058234;28;20256;-79
2022/09/21 07:23:15;;;;;;;7.20;5.13;;;7.70;99.90;;;;;;5057531;28;20186;-80
2022/09/21 07:25:42;;;;;;;12.37;6.33;;;7.90;99.90;;;;;;5057950;28;20206;-79
2022/09/21 07:28:08;;;;;;;12.37;6.73;;;8.00;99.90;;;;;;5058102;28;20199;-79
2022/09/21 07:30:35;;;;;;;16.80;8.10;;;8.20;99.90;;;;;;5059257;28;20171;-79
2022/09/21 07:33:01;;;;;;;16.50;8.63;;;8.30;99.90;;;;;;5058946;28;20223;-79
2022/09/21 07:35:27;;;;;;;14.20;8.53;;;8.50;99.90;;;;;;5057315;28;20175;-79
2022/09/21 07:37:52;;;;;;;16.90;9.03;;;8.60;99.90;;;;;;5059648;28;20223;-80
2022/09/21 07:40:18;;;;;;;16.70;9.67;;;8.70;99.90;;;;;;5058164;28;20214;-80
2022/09/21 07:42:44;;;;;;;16.80;9.30;;;8.80;99.90;;;;;;5055819;28;20187;-79
2022/09/21 07:45:10;;;;;;;17.37;9.77;;;8.90;99.90;;;;;;5058410;28;20294;-80
2022/09/21 07:47:35;;;;;;;18.03;9.87;;;9.00;99.90;;;;;;5057850;28;20192;-80
2022/09/21 07:50:01;;;;;;;23.77;11.17;;;9.10;99.90;;;;;;5056843;28;20281;-80
2022/09/21 07:52:26;;;;;;;15.07;10.60;;;9.30;99.90;;;;;;5057467;28;20180;-79
2022/09/21 07:54:52;;;;;;;18.07;10.40;;;9.40;99.90;;;;;;5058578;28;20179;-79
2022/09/21 08:00:02;;;;;;;19.03;10.90;;;9.70;99.90;;;;;;5057167;28;20198;-79
2022/09/21 08:02:28;;;;;;;18.37;10.73;;;9.80;99.90;;;;;;5055995;28;20175;-80
2022/09/21 08:04:53;;;;;;;19.10;11.57;;;9.90;99.90;;;;;;5057752;28;20540;-79
2022/09/21 08:07:19;;;;;;;22.40;11.97;;;9.90;99.90;;;;;;5055925;28;20257;-80
2022/09/21 08:09:48;;;;;;;18.70;11.77;;;10.00;99.90;;;;;;5057378;28;20168;-80
2022/09/21 08:12:13;;;;;;;24.60;11.50;;;10.10;99.90;;;;;;5057646;28;20201;-79
2022/09/21 08:14:39;;;;;;;20.17;11.03;;;10.20;99.90;;;;;;5056961;28;20179;-78
2022/09/21 08:17:05;;;;;;;20.63;11.00;;;10.20;99.90;;;;;;5055892;28;20242;-80
2022/09/21 08:19:32;;;;;;;22.00;11.90;;;10.30;99.90;;;;;;5055921;28;20552;-79
2022/09/21 08:21:57;;;;;;;22.13;11.20;;;10.30;99.90;;;;;;5056440;28;20262;-79
2022/09/21 08:24:24;;;;;;;19.40;10.83;;;10.40;99.90;;;;;;5055814;28;20646;-79
2022/09/21 08:26:51;;;;;;;22.30;10.80;;;10.40;99.90;;;;;;5056959;28;20169;-80
2022/09/21 08:29:16;;;;;;;14.97;10.00;;;10.50;99.90;;;;;;5057377;28;20176;-80
2022/09/21 08:31:42;;;;;;;18.33;10.63;;;10.60;99.90;;;;;;5057274;28;20175;-79
2022/09/21 08:34:07;;;;;;;17.23;10.07;;;10.70;99.90;;;;;;5057845;28;20171;-79
2022/09/21 08:36:33;;;;;;;13.97;9.27;;;10.80;99.90;;;;;;5056738;28;20183;-80
2022/09/21 08:38:58;;;;;;;18.37;8.67;;;10.80;99.90;;;;;;5057403;28;20238;-80
2022/09/21 08:41:39;;;;;;;14.07;8.13;;;10.90;99.90;;;;;;5057281;28;20237;-80
2022/09/21 08:44:18;;;;;;;14.03;7.40;;;11.00;99.90;;;;;;5055563;28;20199;-80
2022/09/21 08:46:48;;;;;;;10.27;7.10;;;11.10;99.90;;;;;;5055395;28;20607;-80
2022/09/21 08:49:24;;;;;;;15.30;8.10;;;11.10;99.90;;;;;;5055170;28;20176;-80
2022/09/21 08:51:55;;;;;;;15.50;8.60;;;11.20;99.90;;;;;;5056761;28;20242;-80
2022/09/21 08:54:36;;;;;;;12.20;7.27;;;11.40;99.90;;;;;;5055471;28;20183;-80
2022/09/21 08:57:01;;;;;;;15.23;7.40;;;11.50;99.90;;;;;;5055011;28;20186;-80
2022/09/21 08:59:27;;;;;;;14.40;6.83;;;11.60;99.90;;;;;;5055814;28;20657;-80
2022/09/21 09:02:01;;;;;;;13.20;6.47;;;11.70;99.90;;;;;;5057383;28;20175;-80
2022/09/21 09:04:35;;;;;;;13.80;6.30;;;11.70;99.90;;;;;;5056479;28;20184;-80
2022/09/21 09:07:13;;;;;;;9.57;6.83;;;11.80;99.90;;;;;;5056782;28;20165;-80
2022/09/21 09:09:53;;;;;;;15.10;6.90;;;11.90;99.90;;;;;;5056490;28;20155;-80
2022/09/21 09:12:28;;;;;;;10.53;6.10;;;12.00;99.90;;;;;;5056625;28;20622;-80
2022/09/21 09:15:30;;;;;;;13.70;6.07;;;12.10;99.90;;;;;;5056640;28;20159;-80
2022/09/21 09:18:20;;;;;;;11.10;5.87;;;12.20;99.90;;;;;;5055343;28;20221;-80
2022/09/21 09:20:56;;;;;;;8.17;4.27;;;12.30;99.90;;;;;;5056421;28;20171;-80
2022/09/21 09:23:30;;;;;;;6.93;2.63;;;12.40;99.90;;;;;;5056333;28;20529;-80
2022/09/21 09:26:04;;;;;;;7.27;2.57;;;12.40;99.90;;;;;;5056159;28;20233;-80
2022/09/21 09:28:35;;;;;;;10.97;3.60;;;12.50;99.90;;;;;;5056641;28;20232;-80
2022/09/21 09:31:23;;;;;;;5.97;3.30;;;12.70;99.90;;;;;;5056148;28;20152;-80
2022/09/21 09:34:26;;;;;;;9.50;3.63;;;12.80;99.90;;;;;;5056090;28;20156;-80
2022/09/21 09:36:58;;;;;;;10.50;2.50;;;12.90;99.90;;;;;;5055635;28;20175;-78
2022/09/21 09:39:24;;;;;;;3.77;2.17;;;12.90;99.90;;;;;;5056295;28;20611;-80
2022/09/21 09:41:53;;;;;;;8.30;3.20;;;13.00;99.90;;;;;;5056014;28;20258;-80
2022/09/21 09:44:26;;;;;;;5.70;2.00;;;13.00;99.90;;;;;;5055927;28;20192;-80
2022/09/21 09:47:20;;;;;;;5.37;2.40;;;13.10;99.90;;;;;;5054775;28;20168;-80
2022/09/21 09:50:03;;;;;;;5.23;2.00;;;13.10;99.90;;;;;;5055778;28;20160;-80
2022/09/21 09:52:29;;;;;;;5.57;2.03;;;13.20;99.90;;;;;;5056355;28;20555;-80
2022/09/21 09:54:55;;;;;;;6.07;1.77;;;13.20;99.90;;;;;;5056773;28;20270;-80
2022/09/21 09:57:32;;;;;;;5.20;1.90;;;13.30;99.90;;;;;;5058059;28;20235;-80
2022/09/21 10:00:11;;;;;;;4.00;1.50;;;13.40;99.90;;;;;;5058437;28;20182;-80
2022/09/21 10:02:49;;;;;;;5.83;1.80;;;13.50;99.90;;;;;;5058443;28;20191;-80
2022/09/21 10:05:24;;;;;;;5.50;1.73;;;13.60;99.90;;;;;;5059303;28;20184;-80
2022/09/21 10:07:51;;;;;;;8.53;1.87;;;13.70;99.90;;;;;;5060090;28;20595;-80
2022/09/21 10:10:22;;;;;;;10.60;2.13;;;13.70;1.00;;;;;;5060370;28;20171;-80
2022/09/21 10:12:49;;;;;;;3.30;1.17;;;13.70;99.90;;;;;;5060286;28;20256;-79
2022/09/21 10:15:20;;;;;;;5.43;1.70;;;13.80;99.90;;;;;;5060137;28;20176;-79
2022/09/21 10:18:06;;;;;;;3.07;1.23;;;13.90;99.90;;;;;;5060882;28;20218;-78
2022/09/21 10:20:32;;;;;;;5.07;1.73;;;13.90;99.90;;;;;;5065810;28;20219;-78
2022/09/21 10:22:59;;;;;;;3.27;1.20;;;14.00;99.90;;;;;;5065729;28;20179;-80
2022/09/21 10:25:28;;;;;;;4.20;1.47;;;14.10;99.90;;;;;;5058871;28;20204;-79
2022/09/21 10:27:55;;;;;;;2.13;1.30;;;14.10;99.90;;;;;;5057785;28;20278;-80
2022/09/21 10:30:41;;;;;;;2.87;1.37;;;14.30;99.90;;;;;;5059357;28;20203;-80
2022/09/21 10:33:20;;;;;;;2.93;1.47;;;14.40;99.90;;;;;;5061369;28;20187;-80
2022/09/21 10:35:51;;;;;;;3.40;1.00;;;14.50;99.90;;;;;;5061028;28;20712;-80
2022/09/21 10:38:19;;;;;;;5.53;1.40;;;14.50;99.90;;;;;;5060306;28;20569;-80
2022/09/21 10:40:46;;;;;;;2.67;1.10;;;14.50;99.90;;;;;;5059644;28;20583;-80
2022/09/21 10:43:33;;;;;;;4.23;1.33;;;14.70;99.90;;;;;;5060600;28;20172;-80
2022/09/21 10:45:59;;;;;;;4.43;1.10;;;14.70;99.90;;;;;;5061238;28;20172;-80
2022/09/21 10:48:26;;;;;;;2.23;1.13;;;14.80;99.90;;;;;;5060683;28;20198;-81
2022/09/21 10:50:53;;;;;;;3.37;1.10;;;14.90;99.90;;;;;;5060276;28;20202;-80
2022/09/21 10:53:27;;;;;;;2.97;1.17;;;14.90;99.90;;;;;;5061701;28;20176;-80
2022/09/21 10:56:00;;;;;;;1.13;0.70;;;15.10;99.90;;;;;;5059734;28;20170;-80
2022/09/21 10:58:26;;;;;;;6.53;1.17;;;15.20;99.90;;;;;;5061267;28;20643;-81
2022/09/21 11:00:53;;;;;;;3.53;0.93;;;15.30;99.90;;;;;;5060059;28;20168;-80
2022/09/21 11:03:43;;;;;;;4.13;1.00;;;15.40;99.90;;;;;;5060516;28;20187;-79
2022/09/21 11:06:13;;;;;;;3.33;1.10;;;15.60;99.90;;;;;;5059246;28;20172;-80
2022/09/21 11:09:07;;;;;;;3.57;1.23;;;15.80;99.90;;;;;;5057577;28;20206;-78
2022/09/21 11:12:11;;;;;;;1.43;0.80;;;15.90;99.90;;;;;;5058390;28;20164;-81
2022/09/21 11:14:59;;;;;;;4.23;1.23;;;16.10;99.90;;;;;;5057353;28;20198;-79
2022/09/21 11:17:53;;;;;;;4.67;1.10;;;16.10;99.90;;;;;;5057789;28;20203;-79
2022/09/21 11:20:32;;;;;;;4.30;1.00;;;16.10;99.90;;;;;;5056744;28;20183;-79
2022/09/21 11:23:14;;;;;;;2.30;1.10;;;16.00;99.90;;;;;;5058608;28;20214;-79
2022/09/21 11:25:46;;;;;;;2.80;1.10;;;15.90;99.90;;;;;;5055964;28;20219;-79
2022/09/21 11:28:21;;;;;;;4.20;1.13;;;15.90;99.90;;;;;;5058259;28;20275;-80
2022/09/21 11:30:56;;;;;;;3.10;1.10;;;15.90;99.90;;;;;;5057563;28;20206;-80
2022/09/21 11:33:37;;;;;;;1.50;0.73;;;15.80;99.90;;;;;;5057766;28;20221;-80
2022/09/21 11:36:24;;;;;;;3.27;1.10;;;15.80;99.90;;;;;;5058953;28;20254;-80
2022/09/21 11:39:02;;;;;;;3.63;0.90;;;15.80;99.90;;;;;;5057042;28;20226;-80
2022/09/21 11:41:41;;;;;;;4.63;0.90;;;15.80;99.90;;;;;;5058262;28;20159;-79
2022/09/21 11:44:31;;;;;;;3.80;0.90;;;15.80;99.90;;;;;;5058596;28;20195;-78
2022/09/21 11:47:32;;;;;;;2.77;0.90;;;15.80;99.90;;;;;;5056497;28;20266;-80
2022/09/21 11:49:57;;;;;;;2.97;0.70;;;15.80;99.90;;;;;;5058667;28;20163;-79
2022/09/21 11:52:35;;;;;;;1.00;0.60;;;15.80;99.90;;;;;;5059545;28;20233;-80
2022/09/21 11:55:22;;;;;;;1.63;0.70;;;15.80;99.90;;;;;;5059964;28;20174;-79
2022/09/21 11:57:51;;;;;;;1.73;0.87;;;15.80;99.90;;;;;;5058442;28;20244;-80
2022/09/21 12:00:17;;;;;;;2.80;0.80;;;15.80;99.90;;;;;;5057493;28;20237;-79
2022/09/21 12:03:08;;;;;;;2.13;0.80;;;15.90;99.90;;;;;;5058192;28;20183;-79
2022/09/21 12:05:44;;;;;;;1.10;0.50;;;15.90;99.90;;;;;;5057250;28;20214;-80
2022/09/21 12:08:28;;;;;;;4.40;0.90;;;16.00;99.90;;;;;;5056520;28;20195;-80
2022/09/21 12:11:22;;;;;;;3.13;0.83;;;16.00;99.90;;;;;;5058553;28;20187;-80
2022/09/21 12:14:06;;;;;;;2.00;0.77;;;16.00;99.90;;;;;;5058195;28;20176;-79
2022/09/21 12:16:41;;;;;;;3.50;0.80;;;16.00;99.90;;;;;;5057687;28;20483;-79
2022/09/21 12:19:22;;;;;;;6.07;0.57;;;16.00;99.90;;;;;;5056258;28;20215;-79
2022/09/21 12:21:54;;;;;;;1.57;0.73;;;15.90;99.90;;;;;;5057108;28;20210;-79
2022/09/21 12:24:36;;;;;;;3.13;0.70;;;15.90;99.90;;;;;;5056974;28;20186;-78
2022/09/21 12:27:28;;;;;;;2.23;0.83;;;15.90;99.90;;;;;;5057995;28;20676;-79
2022/09/21 12:30:13;;;;;;;1.53;0.53;;;15.90;99.90;;;;;;5056180;28;20175;-79
2022/09/21 12:33:02;;;;;;;2.27;0.93;;;15.80;99.90;;;;;;5058090;28;20159;-79
2022/09/21 12:35:40;;;;;;;2.17;0.80;;;15.80;99.90;;;;;;5058427;28;20160;-79
2022/09/21 12:38:20;;;;;;;1.50;0.80;;;15.80;99.90;;;;;;5058298;28;20226;-79
2022/09/21 12:40:58;;;;;;;2.43;1.10;;;15.80;99.90;;;;;;5058040;28;20183;-78
2022/09/21 12:43:48;;;;;;;2.70;0.83;;;15.70;99.90;;;;;;5056360;28;20243;-78
2022/09/21 12:46:36;;;;;;;1.43;0.70;;;15.70;99.90;;;;;;5055232;28;20690;-78
2022/09/21 12:49:14;;;;;;;5.00;0.87;;;15.70;99.90;;;;;;5045362;28;20284;-78
2022/09/21 12:51:48;;;;;;;2.17;0.80;;;15.70;99.90;;;;;;5056269;28;20155;-78
2022/09/21 12:54:23;;;;;;;3.13;0.80;;;15.70;99.90;;;;;;5055657;28;20186;-78
2022/09/21 12:56:52;;;;;;;2.40;0.57;;;15.60;99.90;;;;;;5053650;28;20569;-79
2022/09/21 12:59:33;;;;;;;4.53;0.70;;;15.60;99.90;;;;;;5056983;28;20175;-79
2022/09/21 13:02:20;;;;;;;1.27;0.60;;;15.60;99.90;;;;;;5056259;28;20168;-78
2022/09/21 13:05:14;;;;;;;1.57;0.77;;;15.60;99.90;;;;;;5055955;28;20234;-78
2022/09/21 13:08:03;;;;;;;2.73;0.70;;;15.60;99.90;;;;;;5054996;28;20546;-78
2022/09/21 13:10:42;;;;;;;1.03;0.40;;;15.70;99.90;;;;;;5052957;28;20641;-78
2022/09/21 13:13:34;;;;;;;1.53;0.63;;;15.80;99.90;;;;;;5053163;28;20172;-77
2022/09/21 13:16:00;;;;;;;4.40;0.73;;;15.80;67.40;;;;;;5053217;28;20175;-78
2022/09/21 13:18:33;;;;;;;5.57;0.97;;;16.00;73.30;;;;;;5053037;28;20668;-78
2022/09/21 13:21:12;;;;;;;2.63;0.70;;;16.10;73.80;;;;;;5054344;28;20176;-78